sensor_id;sensor_type;location;lat;lon;timestamp;pressure;altitude;pressure_sealevel;temperature;humidity
10940;BME280;5522;42.696;23.494;2022-11-18T00:00:54;53936.22;;;-139.68;100.00
10940;BME280;5522;42.696;23.494;2022-11-18T00:03:23;53928.19;;;-139.68;100.00
10940;BME280;5522;42.696;23.494;2022-11-18T00:05:53;53956.34;;;-139.68;100.00
10940;BME280;5522;42.696;23.494;2022-11-18T00:08:20;53950.31;;;-139.68;100.00
10940;BME280;5522;42.696;23.494;2022-11-18T00:10:47;53940.25;;;-139.68;100.00
10940;BME280;5522;42.696;23.494;2022-11-18T00:13:14;53924.16;;;-139.68;100.00
10940;BME280;5522;42.696;23.494;2022-11-18T00:15:59;53942.25;;;-139.68;100.00
10940;BME280;5522;42.696;23.494;2022-11-18T00:18:27;53948.31;;;-139.68;100.00
10940;BME280;5522;42.696;23.494;2022-11-18T00:20:54;53924.16;;;-139.68;100.00
10940;BME280;5522;42.696;23.494;2022-11-18T00:23:25;53940.25;;;-139.68;100.00
10940;BME280;5522;42.696;23.494;2022-11-18T00:25:52;53948.31;;;-139.68;100.00
10940;BME280;5522;42.696;23.494;2022-11-18T00:28:19;53916.13;;;-139.68;100.00
10940;BME280;5522;42.696;23.494;2022-11-18T00:30:46;53948.31;;;-139.68;100.00
10940;BME280;5522;42.696;23.494;2022-11-18T00:33:13;53906.06;;;-139.68;100.00
10940;BME280;5522;42.696;23.494;2022-11-18T00:35:41;53932.22;;;-139.68;100.00
10940;BME280;5522;42.696;23.494;2022-11-18T00:38:08;53867.88;;;-139.68;100.00
10940;BME280;5522;42.696;23.494;2022-11-18T00:40:34;53920.16;;;-139.68;100.00
10940;BME280;5522;42.696;23.494;2022-11-18T00:43:01;53916.13;;;-139.68;100.00
10940;BME280;5522;42.696;23.494;2022-11-18T00:45:27;53906.06;;;-139.68;100.00
10940;BME280;5522;42.696;23.494;2022-11-18T00:47:54;53906.06;;;-139.68;100.00
10940;BME280;5522;42.696;23.494;2022-11-18T00:50:20;53902.06;;;-139.68;100.00
10940;BME280;5522;42.696;23.494;2022-11-18T00:52:49;53916.13;;;-139.68;100.00
10940;BME280;5522;42.696;23.494;2022-11-18T00:55:15;53936.22;;;-139.68;100.00
10940;BME280;5522;42.696;23.494;2022-11-18T00:57:42;53944.28;;;-139.68;100.00
10940;BME280;5522;42.696;23.494;2022-11-18T01:05:38;53916.13;;;-139.68;100.00
10940;BME280;5522;42.696;23.494;2022-11-18T01:08:08;53942.25;;;-139.68;100.00
10940;BME280;5522;42.696;23.494;2022-11-18T01:10:36;53904.06;;;-139.68;100.00
10940;BME280;5522;42.696;23.494;2022-11-18T01:13:03;53940.25;;;-139.68;100.00
10940;BME280;5522;42.696;23.494;2022-11-18T01:15:48;53890.00;;;-139.68;100.00
10940;BME280;5522;42.696;23.494;2022-11-18T01:18:15;53938.25;;;-139.68;100.00
10940;BME280;5522;42.696;23.494;2022-11-18T01:20:42;53918.16;;;-139.68;100.00
10940;BME280;5522;42.696;23.494;2022-11-18T01:23:11;53892.00;;;-139.68;100.00
10940;BME280;5522;42.696;23.494;2022-11-18T01:25:40;53924.16;;;-139.68;100.00
10940;BME280;5522;42.696;23.494;2022-11-18T01:28:08;53908.09;;;-139.68;100.00
10940;BME280;5522;42.696;23.494;2022-11-18T01:30:36;53906.06;;;-139.68;100.00
10940;BME280;5522;42.696;23.494;2022-11-18T01:33:04;53910.09;;;-139.68;100.00
10940;BME280;5522;42.696;23.494;2022-11-18T01:35:33;53918.16;;;-139.68;100.00
10940;BME280;5522;42.696;23.494;2022-11-18T01:38:00;53910.09;;;-139.68;100.00
10940;BME280;5522;42.696;23.494;2022-11-18T01:40:29;53922.16;;;-139.68;100.00
10940;BME280;5522;42.696;23.494;2022-11-18T01:42:56;53910.09;;;-139.68;100.00
10940;BME280;5522;42.696;23.494;2022-11-18T01:45:26;53924.16;;;-139.68;100.00
10940;BME280;5522;42.696;23.494;2022-11-18T01:47:58;53940.25;;;-139.68;100.00
10940;BME280;5522;42.696;23.494;2022-11-18T01:50:27;53892.00;;;-139.68;100.00
10940;BME280;5522;42.696;23.494;2022-11-18T01:53:00;53916.13;;;-139.68;100.00
10940;BME280;5522;42.696;23.494;2022-11-18T01:55:33;53898.03;;;-139.68;100.00
10940;BME280;5522;42.696;23.494;2022-11-18T01:58:06;53950.31;;;-139.68;100.00
10940;BME280;5522;42.696;23.494;2022-11-18T02:00:35;53922.16;;;-139.68;100.00
10940;BME280;5522;42.696;23.494;2022-11-18T02:03:03;53928.19;;;-139.68;100.00
10940;BME280;5522;42.696;23.494;2022-11-18T02:05:30;53924.16;;;-139.68;100.00
10940;BME280;5522;42.696;23.494;2022-11-18T02:08:00;53944.28;;;-139.68;100.00
10940;BME280;5522;42.696;23.494;2022-11-18T02:10:27;53888.00;;;-139.68;100.00
10940;BME280;5522;42.696;23.494;2022-11-18T02:12:56;53912.13;;;-139.68;100.00
10940;BME280;5522;42.696;23.494;2022-11-18T02:15:34;53936.22;;;-139.68;100.00
10940;BME280;5522;42.696;23.494;2022-11-18T02:18:10;53924.16;;;-139.68;100.00
10940;BME280;5522;42.696;23.494;2022-11-18T02:20:41;53940.25;;;-139.68;100.00
10940;BME280;5522;42.696;23.494;2022-11-18T02:23:38;53912.13;;;-139.68;100.00
10940;BME280;5522;42.696;23.494;2022-11-18T02:26:43;53928.19;;;-139.68;100.00
10940;BME280;5522;42.696;23.494;2022-11-18T02:29:23;53896.03;;;-139.68;100.00
10940;BME280;5522;42.696;23.494;2022-11-18T02:31:56;53940.25;;;-139.68;100.00
10940;BME280;5522;42.696;23.494;2022-11-18T02:34:38;53926.19;;;-139.68;100.00
10940;BME280;5522;42.696;23.494;2022-11-18T02:37:12;53924.16;;;-139.68;100.00
10940;BME280;5522;42.696;23.494;2022-11-18T02:39:46;53920.16;;;-139.68;100.00
10940;BME280;5522;42.696;23.494;2022-11-18T02:42:14;53924.16;;;-139.68;100.00
10940;BME280;5522;42.696;23.494;2022-11-18T02:44:46;53936.22;;;-139.68;100.00
10940;BME280;5522;42.696;23.494;2022-11-18T02:47:16;53936.22;;;-139.68;100.00
10940;BME280;5522;42.696;23.494;2022-11-18T02:49:47;53875.94;;;-139.68;100.00
10940;BME280;5522;42.696;23.494;2022-11-18T02:52:15;53956.34;;;-139.68;100.00
10940;BME280;5522;42.696;23.494;2022-11-18T02:54:46;53958.34;;;-139.68;100.00
10940;BME280;5522;42.696;23.494;2022-11-18T02:57:14;53920.16;;;-139.68;100.00
10940;BME280;5522;42.696;23.494;2022-11-18T02:59:41;53902.06;;;-139.68;100.00
10940;BME280;5522;42.696;23.494;2022-11-18T03:02:14;53885.97;;;-139.68;100.00
10940;BME280;5522;42.696;23.494;2022-11-18T03:04:42;53952.31;;;-139.68;100.00
10940;BME280;5522;42.696;23.494;2022-11-18T03:07:12;53950.31;;;-139.68;100.00
10940;BME280;5522;42.696;23.494;2022-11-18T03:09:43;53970.41;;;-139.68;100.00
10940;BME280;5522;42.696;23.494;2022-11-18T03:12:16;53918.16;;;-139.68;100.00
10940;BME280;5522;42.696;23.494;2022-11-18T03:14:50;53920.16;;;-139.68;100.00
10940;BME280;5522;42.696;23.494;2022-11-18T03:17:31;53918.16;;;-139.68;100.00
10940;BME280;5522;42.696;23.494;2022-11-18T03:20:10;53956.34;;;-139.68;100.00
10940;BME280;5522;42.696;23.494;2022-11-18T03:22:43;53916.13;;;-139.68;100.00
10940;BME280;5522;42.696;23.494;2022-11-18T03:25:16;53934.22;;;-139.68;100.00
10940;BME280;5522;42.696;23.494;2022-11-18T03:27:48;53892.00;;;-139.68;100.00
10940;BME280;5522;42.696;23.494;2022-11-18T03:30:19;53944.28;;;-139.68;100.00
10940;BME280;5522;42.696;23.494;2022-11-18T03:32:51;53916.13;;;-139.68;100.00
10940;BME280;5522;42.696;23.494;2022-11-18T03:35:22;53944.28;;;-139.68;100.00
10940;BME280;5522;42.696;23.494;2022-11-18T03:37:54;53924.16;;;-139.68;100.00
10940;BME280;5522;42.696;23.494;2022-11-18T03:40:25;53914.13;;;-139.68;100.00
10940;BME280;5522;42.696;23.494;2022-11-18T03:42:57;53946.28;;;-139.68;100.00
10940;BME280;5522;42.696;23.494;2022-11-18T03:45:29;53956.34;;;-139.68;100.00
10940;BME280;5522;42.696;23.494;2022-11-18T03:48:02;53934.22;;;-139.68;100.00
10940;BME280;5522;42.696;23.494;2022-11-18T03:50:32;53940.25;;;-139.68;100.00
10940;BME280;5522;42.696;23.494;2022-11-18T03:53:02;53972.41;;;-139.68;100.00
10940;BME280;5522;42.696;23.494;2022-11-18T03:55:33;53924.16;;;-139.68;100.00
10940;BME280;5522;42.696;23.494;2022-11-18T03:58:05;53902.06;;;-139.68;100.00
10940;BME280;5522;42.696;23.494;2022-11-18T04:00:38;53910.09;;;-139.68;100.00
10940;BME280;5522;42.696;23.494;2022-11-18T04:03:08;53912.13;;;-139.68;100.00
10940;BME280;5522;42.696;23.494;2022-11-18T04:05:38;53934.22;;;-139.68;100.00
10940;BME280;5522;42.696;23.494;2022-11-18T04:08:08;53932.22;;;-139.68;100.00
10940;BME280;5522;42.696;23.494;2022-11-18T04:10:39;53950.31;;;-139.68;100.00
10940;BME280;5522;42.696;23.494;2022-11-18T04:13:12;53946.28;;;-139.68;100.00
10940;BME280;5522;42.696;23.494;2022-11-18T04:15:40;53924.16;;;-139.68;100.00
10940;BME280;5522;42.696;23.494;2022-11-18T04:18:09;53952.31;;;-139.68;100.00
10940;BME280;5522;42.696;23.494;2022-11-18T04:20:36;53900.06;;;-139.68;100.00
10940;BME280;5522;42.696;23.494;2022-11-18T04:23:03;53928.19;;;-139.68;100.00
10940;BME280;5522;42.696;23.494;2022-11-18T04:25:30;53940.25;;;-139.68;100.00
10940;BME280;5522;42.696;23.494;2022-11-18T04:27:58;53912.13;;;-139.68;100.00
10940;BME280;5522;42.696;23.494;2022-11-18T04:30:25;53928.19;;;-139.68;100.00
10940;BME280;5522;42.696;23.494;2022-11-18T04:32:52;53942.25;;;-139.68;100.00
10940;BME280;5522;42.696;23.494;2022-11-18T04:35:20;53920.16;;;-139.68;100.00
10940;BME280;5522;42.696;23.494;2022-11-18T04:37:47;53918.16;;;-139.68;100.00
10940;BME280;5522;42.696;23.494;2022-11-18T04:40:14;53936.22;;;-139.68;100.00
10940;BME280;5522;42.696;23.494;2022-11-18T04:42:41;53930.22;;;-139.68;100.00
10940;BME280;5522;42.696;23.494;2022-11-18T04:45:09;53926.19;;;-139.68;100.00
10940;BME280;5522;42.696;23.494;2022-11-18T04:47:36;53932.22;;;-139.68;100.00
10940;BME280;5522;42.696;23.494;2022-11-18T04:50:03;53936.22;;;-139.68;100.00
10940;BME280;5522;42.696;23.494;2022-11-18T04:52:32;53926.19;;;-139.68;100.00
10940;BME280;5522;42.696;23.494;2022-11-18T04:54:58;53908.09;;;-139.68;100.00
10940;BME280;5522;42.696;23.494;2022-11-18T04:57:25;53942.25;;;-139.68;100.00
10940;BME280;5522;42.696;23.494;2022-11-18T04:59:52;53954.31;;;-139.68;100.00
10940;BME280;5522;42.696;23.494;2022-11-18T05:02:19;53922.16;;;-139.68;100.00
10940;BME280;5522;42.696;23.494;2022-11-18T05:04:45;53932.22;;;-139.68;100.00
10940;BME280;5522;42.696;23.494;2022-11-18T05:07:14;53940.25;;;-139.68;100.00
10940;BME280;5522;42.696;23.494;2022-11-18T05:09:42;53966.38;;;-139.68;100.00
10940;BME280;5522;42.696;23.494;2022-11-18T05:12:11;53958.34;;;-139.68;100.00
10940;BME280;5522;42.696;23.494;2022-11-18T05:14:55;53930.22;;;-139.68;100.00
10940;BME280;5522;42.696;23.494;2022-11-18T05:17:22;53924.16;;;-139.68;100.00
10940;BME280;5522;42.696;23.494;2022-11-18T05:19:49;53888.00;;;-139.68;100.00
10940;BME280;5522;42.696;23.494;2022-11-18T05:22:16;53936.22;;;-139.68;100.00
10940;BME280;5522;42.696;23.494;2022-11-18T05:24:44;53920.16;;;-139.68;100.00
10940;BME280;5522;42.696;23.494;2022-11-18T05:27:11;53914.13;;;-139.68;100.00
10940;BME280;5522;42.696;23.494;2022-11-18T05:29:39;53879.94;;;-139.68;100.00
10940;BME280;5522;42.696;23.494;2022-11-18T05:32:05;53944.28;;;-139.68;100.00
10940;BME280;5522;42.696;23.494;2022-11-18T05:34:32;53972.41;;;-139.68;100.00
10940;BME280;5522;42.696;23.494;2022-11-18T05:36:59;53932.22;;;-139.68;100.00
10940;BME280;5522;42.696;23.494;2022-11-18T05:39:26;53906.06;;;-139.68;100.00
10940;BME280;5522;42.696;23.494;2022-11-18T05:41:54;53926.19;;;-139.68;100.00
10940;BME280;5522;42.696;23.494;2022-11-18T05:44:38;53920.16;;;-139.68;100.00
10940;BME280;5522;42.696;23.494;2022-11-18T05:47:05;53926.19;;;-139.68;100.00
10940;BME280;5522;42.696;23.494;2022-11-18T05:49:32;53914.13;;;-139.68;100.00
10940;BME280;5522;42.696;23.494;2022-11-18T05:51:58;53924.16;;;-139.68;100.00
10940;BME280;5522;42.696;23.494;2022-11-18T05:54:25;53964.38;;;-139.68;100.00
10940;BME280;5522;42.696;23.494;2022-11-18T05:56:54;53968.41;;;-139.68;100.00
10940;BME280;5522;42.696;23.494;2022-11-18T05:59:21;53922.16;;;-139.68;100.00
10940;BME280;5522;42.696;23.494;2022-11-18T06:01:51;53934.22;;;-139.68;100.00
10940;BME280;5522;42.696;23.494;2022-11-18T06:04:23;53978.47;;;-139.68;100.00
10940;BME280;5522;42.696;23.494;2022-11-18T06:06:53;53934.22;;;-139.68;100.00
10940;BME280;5522;42.696;23.494;2022-11-18T06:09:23;53944.28;;;-139.68;100.00
10940;BME280;5522;42.696;23.494;2022-11-18T06:11:56;53910.09;;;-139.68;100.00
10940;BME280;5522;42.696;23.494;2022-11-18T06:14:29;53944.28;;;-139.68;100.00
10940;BME280;5522;42.696;23.494;2022-11-18T06:17:00;53936.22;;;-139.68;100.00
10940;BME280;5522;42.696;23.494;2022-11-18T06:19:27;53944.28;;;-139.68;100.00
10940;BME280;5522;42.696;23.494;2022-11-18T06:21:55;53920.16;;;-139.68;100.00
10940;BME280;5522;42.696;23.494;2022-11-18T06:24:22;53912.13;;;-139.68;100.00
10940;BME280;5522;42.696;23.494;2022-11-18T06:26:50;53930.22;;;-139.68;100.00
10940;BME280;5522;42.696;23.494;2022-11-18T06:29:19;53970.41;;;-139.68;100.00
10940;BME280;5522;42.696;23.494;2022-11-18T06:31:46;53908.09;;;-139.68;100.00
10940;BME280;5522;42.696;23.494;2022-11-18T06:34:13;53984.47;;;-139.68;100.00
10940;BME280;5522;42.696;23.494;2022-11-18T06:36:40;53910.09;;;-139.68;100.00
10940;BME280;5522;42.696;23.494;2022-11-18T06:39:06;53976.44;;;-139.68;100.00
10940;BME280;5522;42.696;23.494;2022-11-18T06:41:34;53986.50;;;-139.68;100.00
10940;BME280;5522;42.696;23.494;2022-11-18T06:44:01;53932.22;;;-139.68;100.00
10940;BME280;5522;42.696;23.494;2022-11-18T06:46:28;53924.16;;;-139.68;100.00
10940;BME280;5522;42.696;23.494;2022-11-18T06:49:12;53960.38;;;-139.68;100.00
10940;BME280;5522;42.696;23.494;2022-11-18T06:51:39;53950.31;;;-139.68;100.00
10940;BME280;5522;42.696;23.494;2022-11-18T06:54:06;53952.31;;;-139.68;100.00
10940;BME280;5522;42.696;23.494;2022-11-18T06:56:33;53944.28;;;-139.68;100.00
10940;BME280;5522;42.696;23.494;2022-11-18T06:59:00;53956.34;;;-139.68;100.00
10940;BME280;5522;42.696;23.494;2022-11-18T07:01:30;53950.31;;;-139.68;100.00
10940;BME280;5522;42.696;23.494;2022-11-18T07:03:58;53944.28;;;-139.68;100.00
10940;BME280;5522;42.696;23.494;2022-11-18T07:06:27;53952.31;;;-139.68;100.00
10940;BME280;5522;42.696;23.494;2022-11-18T07:08:54;53960.38;;;-139.68;100.00
10940;BME280;5522;42.696;23.494;2022-11-18T07:11:23;53934.22;;;-139.68;100.00
10940;BME280;5522;42.696;23.494;2022-11-18T07:13:50;53964.38;;;-139.68;100.00
10940;BME280;5522;42.696;23.494;2022-11-18T07:16:19;53976.44;;;-139.68;100.00
10940;BME280;5522;42.696;23.494;2022-11-18T07:18:48;53966.38;;;-139.68;100.00
10940;BME280;5522;42.696;23.494;2022-11-18T07:21:17;53936.22;;;-139.68;100.00
10940;BME280;5522;42.696;23.494;2022-11-18T07:23:45;53958.34;;;-139.68;100.00
10940;BME280;5522;42.696;23.494;2022-11-18T07:26:13;53922.16;;;-139.68;100.00
10940;BME280;5522;42.696;23.494;2022-11-18T07:28:40;53966.38;;;-139.68;100.00
10940;BME280;5522;42.696;23.494;2022-11-18T07:31:09;53940.25;;;-139.68;100.00
10940;BME280;5522;42.696;23.494;2022-11-18T07:33:37;53922.16;;;-139.68;100.00
10940;BME280;5522;42.696;23.494;2022-11-18T07:36:08;53928.19;;;-139.68;100.00
10940;BME280;5522;42.696;23.494;2022-11-18T07:38:35;53964.38;;;-139.68;100.00
10940;BME280;5522;42.696;23.494;2022-11-18T07:41:03;53976.44;;;-139.68;100.00
10940;BME280;5522;42.696;23.494;2022-11-18T07:43:31;53970.41;;;-139.68;100.00
10940;BME280;5522;42.696;23.494;2022-11-18T07:46:07;53938.25;;;-139.68;100.00
10940;BME280;5522;42.696;23.494;2022-11-18T07:48:34;53940.25;;;-139.68;100.00
10940;BME280;5522;42.696;23.494;2022-11-18T07:51:01;53956.34;;;-139.68;100.00
10940;BME280;5522;42.696;23.494;2022-11-18T07:53:31;53986.50;;;-139.68;100.00
10940;BME280;5522;42.696;23.494;2022-11-18T07:55:59;53992.53;;;-139.68;100.00
10940;BME280;5522;42.696;23.494;2022-11-18T07:58:26;53966.38;;;-139.68;100.00
10940;BME280;5522;42.696;23.494;2022-11-18T08:00:53;54000.56;;;-139.68;100.00
10940;BME280;5522;42.696;23.494;2022-11-18T08:03:24;53940.25;;;-139.68;100.00
10940;BME280;5522;42.696;23.494;2022-11-18T08:05:51;53936.22;;;-139.68;100.00
10940;BME280;5522;42.696;23.494;2022-11-18T08:08:18;53980.47;;;-139.68;100.00
10940;BME280;5522;42.696;23.494;2022-11-18T08:10:46;53968.41;;;-139.68;100.00
10940;BME280;5522;42.696;23.494;2022-11-18T08:13:13;53996.53;;;-139.68;100.00
10940;BME280;5522;42.696;23.494;2022-11-18T08:15:39;53980.47;;;-139.68;100.00
10940;BME280;5522;42.696;23.494;2022-11-18T08:18:06;53982.47;;;-139.68;100.00
10940;BME280;5522;42.696;23.494;2022-11-18T08:20:33;53992.53;;;-139.68;100.00
10940;BME280;5522;42.696;23.494;2022-11-18T08:23:00;53980.47;;;-139.68;100.00
10940;BME280;5522;42.696;23.494;2022-11-18T08:25:27;53966.38;;;-139.68;100.00
10940;BME280;5522;42.696;23.494;2022-11-18T08:27:55;53972.41;;;-139.68;100.00
10940;BME280;5522;42.696;23.494;2022-11-18T08:30:22;54008.63;;;-139.68;100.00
10940;BME280;5522;42.696;23.494;2022-11-18T08:32:48;53968.41;;;-139.68;100.00
10940;BME280;5522;42.696;23.494;2022-11-18T08:35:15;53982.47;;;-139.68;100.00
10940;BME280;5522;42.696;23.494;2022-11-18T08:37:42;53954.31;;;-139.68;100.00
10940;BME280;5522;42.696;23.494;2022-11-18T08:40:10;53972.41;;;-139.68;100.00
10940;BME280;5522;42.696;23.494;2022-11-18T08:42:37;53984.47;;;-139.68;100.00
10940;BME280;5522;42.696;23.494;2022-11-18T08:45:06;53964.38;;;-139.68;100.00
10940;BME280;5522;42.696;23.494;2022-11-18T08:47:33;53950.31;;;-139.68;100.00
10940;BME280;5522;42.696;23.494;2022-11-18T08:50:00;53976.44;;;-139.68;100.00
10940;BME280;5522;42.696;23.494;2022-11-18T08:52:28;53992.53;;;-139.68;100.00
10940;BME280;5522;42.696;23.494;2022-11-18T08:54:55;53966.38;;;-139.68;100.00
10940;BME280;5522;42.696;23.494;2022-11-18T08:57:22;54048.81;;;-139.68;100.00
10940;BME280;5522;42.696;23.494;2022-11-18T08:59:49;53984.47;;;-139.68;100.00
10940;BME280;5522;42.696;23.494;2022-11-18T09:02:19;54012.63;;;-139.68;100.00
10940;BME280;5522;42.696;23.494;2022-11-18T09:04:46;53956.34;;;-139.68;100.00
10940;BME280;5522;42.696;23.494;2022-11-18T09:07:13;54020.66;;;-139.68;100.00
10940;BME280;5522;42.696;23.494;2022-11-18T09:09:40;53992.53;;;-139.68;100.00
10940;BME280;5522;42.696;23.494;2022-11-18T09:12:06;53994.53;;;-139.68;100.00
10940;BME280;5522;42.696;23.494;2022-11-18T09:14:34;53984.47;;;-139.68;100.00
10940;BME280;5522;42.696;23.494;2022-11-18T09:17:01;53988.50;;;-139.68;100.00
10940;BME280;5522;42.696;23.494;2022-11-18T09:19:29;54000.56;;;-139.68;100.00
10940;BME280;5522;42.696;23.494;2022-11-18T09:21:56;53932.22;;;-139.68;100.00
10940;BME280;5522;42.696;23.494;2022-11-18T09:24:22;53948.31;;;-139.68;100.00
10940;BME280;5522;42.696;23.494;2022-11-18T09:26:49;53992.53;;;-139.68;100.00
10940;BME280;5522;42.696;23.494;2022-11-18T09:29:18;53984.47;;;-139.68;100.00
10940;BME280;5522;42.696;23.494;2022-11-18T09:31:49;53956.34;;;-139.68;100.00
10940;BME280;5522;42.696;23.494;2022-11-18T09:34:16;53994.53;;;-139.68;100.00
10940;BME280;5522;42.696;23.494;2022-11-18T09:36:44;53988.50;;;-139.68;100.00
10940;BME280;5522;42.696;23.494;2022-11-18T09:39:11;53992.53;;;-139.68;100.00
10940;BME280;5522;42.696;23.494;2022-11-18T09:41:44;53986.50;;;-139.68;100.00
10940;BME280;5522;42.696;23.494;2022-11-18T09:44:29;53950.31;;;-139.68;100.00
10940;BME280;5522;42.696;23.494;2022-11-18T09:47:07;53992.53;;;-139.68;100.00
10940;BME280;5522;42.696;23.494;2022-11-18T09:49:40;53974.44;;;-139.68;100.00
10940;BME280;5522;42.696;23.494;2022-11-18T09:52:16;54004.59;;;-139.68;100.00
10940;BME280;5522;42.696;23.494;2022-11-18T09:54:44;53966.38;;;-139.68;100.00
10940;BME280;5522;42.696;23.494;2022-11-18T09:57:13;53950.31;;;-139.68;100.00
10940;BME280;5522;42.696;23.494;2022-11-18T09:59:41;53972.41;;;-139.68;100.00
10940;BME280;5522;42.696;23.494;2022-11-18T10:02:27;53984.47;;;-139.68;100.00
10940;BME280;5522;42.696;23.494;2022-11-18T10:05:00;54008.63;;;-139.68;100.00
10940;BME280;5522;42.696;23.494;2022-11-18T10:07:35;54032.72;;;-139.68;100.00
10940;BME280;5522;42.696;23.494;2022-11-18T10:10:13;53982.47;;;-139.68;100.00
10940;BME280;5522;42.696;23.494;2022-11-18T10:12:46;54000.56;;;-139.68;100.00
10940;BME280;5522;42.696;23.494;2022-11-18T10:15:21;53996.53;;;-139.68;100.00
10940;BME280;5522;42.696;23.494;2022-11-18T10:17:59;54002.56;;;-139.68;100.00
10940;BME280;5522;42.696;23.494;2022-11-18T10:20:36;53986.50;;;-139.68;100.00
10940;BME280;5522;42.696;23.494;2022-11-18T10:23:14;54044.78;;;-139.68;100.00
10940;BME280;5522;42.696;23.494;2022-11-18T10:25:42;54012.63;;;-139.68;100.00
10940;BME280;5522;42.696;23.494;2022-11-18T10:28:15;54004.59;;;-139.68;100.00
10940;BME280;5522;42.696;23.494;2022-11-18T10:30:43;54054.84;;;-139.68;92.22
10940;BME280;5522;42.696;23.494;2022-11-18T10:33:22;54006.59;;;-139.68;95.53
10940;BME280;5522;42.696;23.494;2022-11-18T10:35:51;54048.81;;;-139.68;99.80
10940;BME280;5522;42.696;23.494;2022-11-18T10:38:34;53996.53;;;-139.68;100.00
10940;BME280;5522;42.696;23.494;2022-11-18T10:41:04;54018.66;;;-139.68;100.00
10940;BME280;5522;42.696;23.494;2022-11-18T10:43:44;53996.53;;;-139.68;100.00
10940;BME280;5522;42.696;23.494;2022-11-18T10:46:18;54012.63;;;-139.68;100.00
10940;BME280;5522;42.696;23.494;2022-11-18T10:49:09;54036.75;;;-139.68;99.41
10940;BME280;5522;42.696;23.494;2022-11-18T10:51:39;53992.53;;;-139.68;100.00
10940;BME280;5522;42.696;23.494;2022-11-18T10:54:15;53988.50;;;-139.68;99.19
10940;BME280;5522;42.696;23.494;2022-11-18T10:56:48;54002.56;;;-139.68;92.98
10940;BME280;5522;42.696;23.494;2022-11-18T10:59:24;54000.56;;;-139.68;79.41
10940;BME280;5522;42.696;23.494;2022-11-18T11:02:00;54056.84;;;-139.68;71.13
10940;BME280;5522;42.696;23.494;2022-11-18T11:04:29;54068.91;;;-139.68;74.43
10940;BME280;5522;42.696;23.494;2022-11-18T11:06:57;54060.88;;;-139.68;84.79
10940;BME280;5522;42.696;23.494;2022-11-18T11:09:28;54030.72;;;-139.68;91.18
10940;BME280;5522;42.696;23.494;2022-11-18T11:11:59;54022.69;;;-139.68;99.69
10940;BME280;5522;42.696;23.494;2022-11-18T11:14:31;54040.78;;;-139.68;100.00
10940;BME280;5522;42.696;23.494;2022-11-18T11:17:05;54028.72;;;-139.68;100.00
10940;BME280;5522;42.696;23.494;2022-11-18T11:19:44;54046.81;;;-139.68;100.00
10940;BME280;5522;42.696;23.494;2022-11-18T11:22:15;54010.63;;;-139.68;100.00
10940;BME280;5522;42.696;23.494;2022-11-18T11:24:43;54036.75;;;-139.68;100.00
10940;BME280;5522;42.696;23.494;2022-11-18T11:27:32;54020.66;;;-139.68;100.00
10940;BME280;5522;42.696;23.494;2022-11-18T11:30:16;54016.66;;;-139.68;100.00
10940;BME280;5522;42.696;23.494;2022-11-18T11:33:26;54024.69;;;-139.68;100.00
10940;BME280;5522;42.696;23.494;2022-11-18T11:38:53;54008.63;;;-139.68;100.00
10940;BME280;5522;42.696;23.494;2022-11-18T11:41:29;54026.69;;;-139.68;100.00
10940;BME280;5522;42.696;23.494;2022-11-18T11:44:08;54030.72;;;-139.68;100.00
10940;BME280;5522;42.696;23.494;2022-11-18T11:46:46;54026.69;;;-139.68;100.00
10940;BME280;5522;42.696;23.494;2022-11-18T11:49:48;54052.84;;;-139.68;100.00
10940;BME280;5522;42.696;23.494;2022-11-18T11:52:25;54014.63;;;-139.68;100.00
10940;BME280;5522;42.696;23.494;2022-11-18T11:55:00;54004.59;;;-139.68;100.00
10940;BME280;5522;42.696;23.494;2022-11-18T11:57:41;54014.63;;;-139.68;100.00
10940;BME280;5522;42.696;23.494;2022-11-18T12:00:15;54048.81;;;-139.68;100.00
10940;BME280;5522;42.696;23.494;2022-11-18T12:02:59;54024.69;;;-139.68;100.00
10940;BME280;5522;42.696;23.494;2022-11-18T12:05:31;54014.63;;;-139.68;100.00
10940;BME280;5522;42.696;23.494;2022-11-18T12:08:02;54038.75;;;-139.68;100.00
10940;BME280;5522;42.696;23.494;2022-11-18T12:10:36;54034.75;;;-139.68;100.00
10940;BME280;5522;42.696;23.494;2022-11-18T12:13:28;54030.72;;;-139.68;100.00
10940;BME280;5522;42.696;23.494;2022-11-18T12:16:06;54004.59;;;-139.68;100.00
10940;BME280;5522;42.696;23.494;2022-11-18T12:18:39;54042.78;;;-139.68;100.00
10940;BME280;5522;42.696;23.494;2022-11-18T12:21:07;54048.81;;;-139.68;100.00
10940;BME280;5522;42.696;23.494;2022-11-18T12:23:34;54038.75;;;-139.68;100.00
10940;BME280;5522;42.696;23.494;2022-11-18T12:26:04;54048.81;;;-139.68;100.00
10940;BME280;5522;42.696;23.494;2022-11-18T12:28:35;54034.75;;;-139.68;100.00
10940;BME280;5522;42.696;23.494;2022-11-18T12:31:25;54044.78;;;-139.68;100.00
10940;BME280;5522;42.696;23.494;2022-11-18T12:33:54;53980.47;;;-139.68;100.00
10940;BME280;5522;42.696;23.494;2022-11-18T12:36:26;54042.78;;;-139.68;100.00
10940;BME280;5522;42.696;23.494;2022-11-18T12:38:53;54054.84;;;-139.68;100.00
10940;BME280;5522;42.696;23.494;2022-11-18T12:41:51;54034.75;;;-139.68;100.00
10940;BME280;5522;42.696;23.494;2022-11-18T12:44:37;54038.75;;;-139.68;100.00
10940;BME280;5522;42.696;23.494;2022-11-18T12:47:04;53990.50;;;-139.68;100.00
10940;BME280;5522;42.696;23.494;2022-11-18T12:52:53;54040.78;;;-139.68;100.00
10940;BME280;5522;42.696;23.494;2022-11-18T12:55:24;54012.63;;;-139.68;100.00
10940;BME280;5522;42.696;23.494;2022-11-18T12:57:52;54050.84;;;-139.68;100.00
10940;BME280;5522;42.696;23.494;2022-11-18T13:00:33;54006.59;;;-139.68;100.00